Albemarle Island — C6LU3 — position and weather

sailwx.info

Track history (hours):
 
Tides and Currents Weather Stations Pressure Air Temp Water Temp Dewpoint Dewpoint Depression Visibility Wind Speed Wind Dir Waves Ship Positions

Albemarle Island

Last reported at 2017-Mar-15 01:17 UTC. Time now 2017-Mar-24 00:08 UTC.
Position N 09°16' W 079°55'.
Warning: this ship's position is 8 days out of date.

Type: Cargo ship. MMSI: 308511000.

Date/timePositionNaut miles runAvg speedWind from/ knotsBaromVisibWave heightAir tempDewpointWater temp
2017-Mar-15 01:17N 09°16' W 079°55'1 0.7
2017-Mar-15 00:33N 09°17' W 079°55'1 1.5
2017-Mar-14 23:32N 09°18' W 079°55'4 3.9
2017-Mar-14 22:33N 09°22' W 079°56'0 0.0
2017-Mar-14 21:34N 09°22' W 079°56'0 0.0
2017-Mar-14 20:34N 09°22' W 079°56'0 0.0
2017-Mar-14 19:33N 09°22' W 079°56'0 0.0
2017-Mar-14 18:34N 09°22' W 079°56'2 2.2
2017-Mar-14 17:34N 09°24' W 079°55'6 5.7
2017-Mar-14 16:33N 09°30' W 079°54'1 0.3
2017-Mar-14 13:33N 09°30' W 079°55'  
2017-Mar-07 09:24N 36°06' W 026°38'3519.1
2017-Mar-07 07:33N 36°23' W 025°59'1919.3
2017-Mar-07 06:34N 36°31' W 025°38'1919.2
2017-Mar-07 05:33N 36°39' W 025°16'1919.3
2017-Mar-07 04:33N 36°47' W 024°54'2019.7
2017-Mar-07 03:33N 36°57' W 024°32'2019.6
2017-Mar-07 02:33N 37°07' W 024°12'1919.5
2017-Mar-07 01:34N 37°18' W 023°51'2019.6
2017-Mar-07 00:33N 37°28' W 023°30'1919.4
2017-Mar-06 23:33N 37°39' W 023°10'1919.3
2017-Mar-06 22:33N 37°49' W 022°49'1919.4
2017-Mar-06 21:33N 37°60' W 022°28'2219.3
2017-Mar-06 20:25N 38°12' W 022°05'2419.2
2017-Mar-06 19:10N 38°25' W 021°39'1219.3
2017-Mar-06 18:32N 38°32' W 021°26'2419.7
2017-Mar-06 17:20N 38°44' W 021°01'  
Track history (hours):
 
Tides and Currents Weather Stations Pressure Air Temp Water Temp Dewpoint Dewpoint Depression Visibility Wind Speed Wind Dir Waves Ship Positions

Albemarle Island

Last reported at 2017-Mar-15 01:17 UTC. Time now 2017-Mar-24 00:08 UTC.
Position N 09°16' W 079°55'.
Warning: this ship's position is 8 days out of date.

Type: Cargo ship. MMSI: 308511000.

Date/timePositionNaut miles runAvg speedWind from/ knotsBaromVisibWave heightAir tempDewpointWater temp
2017-Mar-15 01:17N 09°16' W 079°55'1 0.7
2017-Mar-15 00:33N 09°17' W 079°55'1 1.5
2017-Mar-14 23:32N 09°18' W 079°55'4 3.9
2017-Mar-14 22:33N 09°22' W 079°56'0 0.0
2017-Mar-14 21:34N 09°22' W 079°56'0 0.0
2017-Mar-14 20:34N 09°22' W 079°56'0 0.0
2017-Mar-14 19:33N 09°22' W 079°56'0 0.0
2017-Mar-14 18:34N 09°22' W 079°56'2 2.2
2017-Mar-14 17:34N 09°24' W 079°55'6 5.7
2017-Mar-14 16:33N 09°30' W 079°54'1 0.3
2017-Mar-14 13:33N 09°30' W 079°55'  
2017-Mar-07 09:24N 36°06' W 026°38'3519.1
2017-Mar-07 07:33N 36°23' W 025°59'1919.3
2017-Mar-07 06:34N 36°31' W 025°38'1919.2
2017-Mar-07 05:33N 36°39' W 025°16'1919.3
2017-Mar-07 04:33N 36°47' W 024°54'2019.7
2017-Mar-07 03:33N 36°57' W 024°32'2019.6
2017-Mar-07 02:33N 37°07' W 024°12'1919.5
2017-Mar-07 01:34N 37°18' W 023°51'2019.6
2017-Mar-07 00:33N 37°28' W 023°30'1919.4
2017-Mar-06 23:33N 37°39' W 023°10'1919.3
2017-Mar-06 22:33N 37°49' W 022°49'1919.4
2017-Mar-06 21:33N 37°60' W 022°28'2219.3
2017-Mar-06 20:25N 38°12' W 022°05'2419.2
2017-Mar-06 19:10N 38°25' W 021°39'1219.3
2017-Mar-06 18:32N 38°32' W 021°26'2419.7
2017-Mar-06 17:20N 38°44' W 021°01'  

Dump ship's entire track history